sensor_id;sensor_type;location;lat;lon;timestamp;P1;durP1;ratioP1;P2;durP2;ratioP2
73585;SDS011;61865;50.232;18.614;2023-03-31T00:00:36;20.92;;;15.80;;
73585;SDS011;61865;50.232;18.614;2023-03-31T00:02:58;22.50;;;15.57;;
73585;SDS011;61865;50.232;18.614;2023-03-31T00:05:21;22.48;;;14.52;;
73585;SDS011;61865;50.232;18.614;2023-03-31T00:07:43;28.77;;;17.20;;
73585;SDS011;61865;50.232;18.614;2023-03-31T00:10:07;33.35;;;18.10;;
73585;SDS011;61865;50.232;18.614;2023-03-31T00:12:30;32.35;;;18.77;;
73585;SDS011;61865;50.232;18.614;2023-03-31T00:14:52;32.60;;;18.38;;
73585;SDS011;61865;50.232;18.614;2023-03-31T00:17:15;26.65;;;16.30;;
73585;SDS011;61865;50.232;18.614;2023-03-31T00:19:38;26.52;;;15.90;;
73585;SDS011;61865;50.232;18.614;2023-03-31T00:22:00;24.73;;;16.88;;
73585;SDS011;61865;50.232;18.614;2023-03-31T00:24:24;27.58;;;16.88;;
73585;SDS011;61865;50.232;18.614;2023-03-31T00:26:46;23.75;;;16.55;;
73585;SDS011;61865;50.232;18.614;2023-03-31T00:29:08;28.23;;;16.77;;
73585;SDS011;61865;50.232;18.614;2023-03-31T00:31:33;26.10;;;17.48;;
73585;SDS011;61865;50.232;18.614;2023-03-31T00:33:56;28.30;;;17.50;;
73585;SDS011;61865;50.232;18.614;2023-03-31T00:36:18;25.55;;;18.73;;
73585;SDS011;61865;50.232;18.614;2023-03-31T00:38:46;29.80;;;19.88;;
73585;SDS011;61865;50.232;18.614;2023-03-31T00:41:08;32.42;;;23.13;;
73585;SDS011;61865;50.232;18.614;2023-03-31T00:43:31;25.60;;;19.05;;
73585;SDS011;61865;50.232;18.614;2023-03-31T00:45:56;28.23;;;18.40;;
73585;SDS011;61865;50.232;18.614;2023-03-31T00:48:25;29.23;;;20.55;;
73585;SDS011;61865;50.232;18.614;2023-03-31T00:50:50;40.13;;;25.98;;
73585;SDS011;61865;50.232;18.614;2023-03-31T00:53:15;77.57;;;36.13;;
73585;SDS011;61865;50.232;18.614;2023-03-31T00:55:42;43.30;;;24.08;;
73585;SDS011;61865;50.232;18.614;2023-03-31T00:58:06;25.75;;;14.10;;
73585;SDS011;61865;50.232;18.614;2023-03-31T01:00:33;24.27;;;14.32;;
73585;SDS011;61865;50.232;18.614;2023-03-31T01:02:56;20.33;;;12.57;;
73585;SDS011;61865;50.232;18.614;2023-03-31T01:05:21;19.77;;;13.43;;
73585;SDS011;61865;50.232;18.614;2023-03-31T01:07:48;20.85;;;13.30;;
73585;SDS011;61865;50.232;18.614;2023-03-31T01:10:12;20.83;;;14.43;;
73585;SDS011;61865;50.232;18.614;2023-03-31T01:12:36;22.30;;;14.23;;
73585;SDS011;61865;50.232;18.614;2023-03-31T01:15:00;19.20;;;13.00;;
73585;SDS011;61865;50.232;18.614;2023-03-31T01:17:24;22.13;;;13.98;;
73585;SDS011;61865;50.232;18.614;2023-03-31T01:19:51;21.67;;;13.93;;
73585;SDS011;61865;50.232;18.614;2023-03-31T01:22:41;21.52;;;13.27;;
73585;SDS011;61865;50.232;18.614;2023-03-31T01:28:32;21.45;;;13.27;;
73585;SDS011;61865;50.232;18.614;2023-03-31T01:31:12;21.45;;;13.43;;
73585;SDS011;61865;50.232;18.614;2023-03-31T01:34:12;19.20;;;13.50;;
73585;SDS011;61865;50.232;18.614;2023-03-31T01:39:51;19.17;;;12.25;;
73585;SDS011;61865;50.232;18.614;2023-03-31T01:42:29;22.05;;;12.85;;
73585;SDS011;61865;50.232;18.614;2023-03-31T01:44:56;20.08;;;12.50;;
73585;SDS011;61865;50.232;18.614;2023-03-31T01:47:23;21.17;;;12.38;;
73585;SDS011;61865;50.232;18.614;2023-03-31T01:49:51;23.02;;;13.55;;
73585;SDS011;61865;50.232;18.614;2023-03-31T01:52:21;21.33;;;14.68;;
73585;SDS011;61865;50.232;18.614;2023-03-31T01:54:46;22.30;;;13.50;;
73585;SDS011;61865;50.232;18.614;2023-03-31T01:57:13;18.80;;;14.05;;
73585;SDS011;61865;50.232;18.614;2023-03-31T01:59:39;19.63;;;12.50;;
73585;SDS011;61865;50.232;18.614;2023-03-31T02:02:08;19.17;;;13.10;;
73585;SDS011;61865;50.232;18.614;2023-03-31T02:04:35;21.15;;;14.25;;
73585;SDS011;61865;50.232;18.614;2023-03-31T02:07:02;25.80;;;15.00;;
73585;SDS011;61865;50.232;18.614;2023-03-31T02:09:32;22.40;;;15.05;;
73585;SDS011;61865;50.232;18.614;2023-03-31T02:11:57;19.33;;;13.35;;
73585;SDS011;61865;50.232;18.614;2023-03-31T02:14:22;20.58;;;13.50;;
73585;SDS011;61865;50.232;18.614;2023-03-31T02:16:46;22.20;;;13.90;;
73585;SDS011;61865;50.232;18.614;2023-03-31T02:19:10;20.27;;;13.88;;
73585;SDS011;61865;50.232;18.614;2023-03-31T02:21:34;18.02;;;12.95;;
73585;SDS011;61865;50.232;18.614;2023-03-31T02:23:59;17.98;;;12.18;;
73585;SDS011;61865;50.232;18.614;2023-03-31T02:26:25;19.75;;;13.70;;
73585;SDS011;61865;50.232;18.614;2023-03-31T02:28:50;17.23;;;12.07;;
73585;SDS011;61865;50.232;18.614;2023-03-31T02:31:15;17.80;;;11.70;;
73585;SDS011;61865;50.232;18.614;2023-03-31T02:33:46;17.00;;;11.95;;
73585;SDS011;61865;50.232;18.614;2023-03-31T02:36:08;16.25;;;11.77;;
73585;SDS011;61865;50.232;18.614;2023-03-31T02:38:30;22.30;;;12.75;;
73585;SDS011;61865;50.232;18.614;2023-03-31T02:40:57;17.73;;;12.70;;
73585;SDS011;61865;50.232;18.614;2023-03-31T02:43:19;18.00;;;11.93;;
73585;SDS011;61865;50.232;18.614;2023-03-31T02:45:42;22.42;;;12.88;;
73585;SDS011;61865;50.232;18.614;2023-03-31T02:48:07;19.27;;;11.57;;
73585;SDS011;61865;50.232;18.614;2023-03-31T02:50:33;17.38;;;11.55;;
73585;SDS011;61865;50.232;18.614;2023-03-31T02:53:06;16.15;;;11.70;;
73585;SDS011;61865;50.232;18.614;2023-03-31T02:55:40;21.92;;;13.13;;
73585;SDS011;61865;50.232;18.614;2023-03-31T02:58:31;19.08;;;12.68;;
73585;SDS011;61865;50.232;18.614;2023-03-31T03:01:07;19.15;;;13.23;;
73585;SDS011;61865;50.232;18.614;2023-03-31T03:03:52;17.30;;;12.30;;
73585;SDS011;61865;50.232;18.614;2023-03-31T03:06:25;18.52;;;10.82;;
73585;SDS011;61865;50.232;18.614;2023-03-31T03:09:13;14.32;;;10.07;;
73585;SDS011;61865;50.232;18.614;2023-03-31T03:11:50;17.48;;;10.93;;
73585;SDS011;61865;50.232;18.614;2023-03-31T03:14:21;16.00;;;10.90;;
73585;SDS011;61865;50.232;18.614;2023-03-31T03:16:51;15.05;;;10.55;;
73585;SDS011;61865;50.232;18.614;2023-03-31T03:19:19;16.27;;;10.93;;
73585;SDS011;61865;50.232;18.614;2023-03-31T03:21:43;18.17;;;11.48;;
73585;SDS011;61865;50.232;18.614;2023-03-31T03:24:06;18.67;;;11.98;;
73585;SDS011;61865;50.232;18.614;2023-03-31T03:26:28;21.58;;;13.38;;
73585;SDS011;61865;50.232;18.614;2023-03-31T03:28:54;18.40;;;11.77;;
73585;SDS011;61865;50.232;18.614;2023-03-31T03:31:17;19.40;;;11.50;;
73585;SDS011;61865;50.232;18.614;2023-03-31T03:33:40;16.13;;;10.38;;
73585;SDS011;61865;50.232;18.614;2023-03-31T03:36:03;17.38;;;10.82;;
73585;SDS011;61865;50.232;18.614;2023-03-31T03:38:27;14.45;;;10.85;;
73585;SDS011;61865;50.232;18.614;2023-03-31T03:40:51;15.13;;;10.82;;
73585;SDS011;61865;50.232;18.614;2023-03-31T03:43:13;18.40;;;11.80;;
73585;SDS011;61865;50.232;18.614;2023-03-31T03:45:35;22.48;;;12.77;;
73585;SDS011;61865;50.232;18.614;2023-03-31T03:47:57;24.10;;;12.20;;
73585;SDS011;61865;50.232;18.614;2023-03-31T03:50:19;17.70;;;12.57;;
73585;SDS011;61865;50.232;18.614;2023-03-31T03:52:42;17.15;;;11.65;;
73585;SDS011;61865;50.232;18.614;2023-03-31T03:55:08;18.40;;;12.50;;
73585;SDS011;61865;50.232;18.614;2023-03-31T03:57:31;21.98;;;13.52;;
73585;SDS011;61865;50.232;18.614;2023-03-31T03:59:53;21.27;;;12.45;;
73585;SDS011;61865;50.232;18.614;2023-03-31T04:02:14;19.08;;;13.80;;
73585;SDS011;61865;50.232;18.614;2023-03-31T04:04:36;25.00;;;14.40;;
73585;SDS011;61865;50.232;18.614;2023-03-31T04:06:58;23.42;;;17.10;;
73585;SDS011;61865;50.232;18.614;2023-03-31T04:09:22;23.75;;;15.40;;
73585;SDS011;61865;50.232;18.614;2023-03-31T04:11:44;25.58;;;16.58;;
73585;SDS011;61865;50.232;18.614;2023-03-31T04:14:06;22.23;;;15.02;;
73585;SDS011;61865;50.232;18.614;2023-03-31T04:16:28;25.38;;;16.58;;
73585;SDS011;61865;50.232;18.614;2023-03-31T04:18:49;24.42;;;16.13;;
73585;SDS011;61865;50.232;18.614;2023-03-31T04:21:15;22.67;;;15.65;;
73585;SDS011;61865;50.232;18.614;2023-03-31T04:23:41;22.65;;;14.93;;
73585;SDS011;61865;50.232;18.614;2023-03-31T04:26:07;25.55;;;16.70;;
73585;SDS011;61865;50.232;18.614;2023-03-31T04:28:30;24.02;;;15.93;;
73585;SDS011;61865;50.232;18.614;2023-03-31T04:30:57;28.00;;;16.05;;
73585;SDS011;61865;50.232;18.614;2023-03-31T04:33:19;29.60;;;19.85;;
73585;SDS011;61865;50.232;18.614;2023-03-31T04:35:42;29.02;;;20.45;;
73585;SDS011;61865;50.232;18.614;2023-03-31T04:38:11;26.05;;;20.52;;
73585;SDS011;61865;50.232;18.614;2023-03-31T04:40:33;32.63;;;22.10;;
73585;SDS011;61865;50.232;18.614;2023-03-31T04:42:56;36.00;;;25.27;;
73585;SDS011;61865;50.232;18.614;2023-03-31T04:45:18;39.42;;;24.08;;
73585;SDS011;61865;50.232;18.614;2023-03-31T04:47:40;44.28;;;26.52;;
73585;SDS011;61865;50.232;18.614;2023-03-31T04:50:02;40.08;;;25.35;;
73585;SDS011;61865;50.232;18.614;2023-03-31T04:52:25;42.97;;;26.58;;
73585;SDS011;61865;50.232;18.614;2023-03-31T04:54:47;29.20;;;21.35;;
73585;SDS011;61865;50.232;18.614;2023-03-31T04:57:09;26.83;;;19.48;;
73585;SDS011;61865;50.232;18.614;2023-03-31T04:59:32;27.60;;;18.80;;
73585;SDS011;61865;50.232;18.614;2023-03-31T05:01:54;31.20;;;18.67;;
73585;SDS011;61865;50.232;18.614;2023-03-31T05:04:16;31.38;;;19.13;;
73585;SDS011;61865;50.232;18.614;2023-03-31T05:06:38;28.42;;;18.05;;
73585;SDS011;61865;50.232;18.614;2023-03-31T05:09:00;31.98;;;18.20;;
73585;SDS011;61865;50.232;18.614;2023-03-31T05:11:22;27.92;;;16.48;;
73585;SDS011;61865;50.232;18.614;2023-03-31T05:13:44;23.20;;;16.13;;
73585;SDS011;61865;50.232;18.614;2023-03-31T05:16:09;27.63;;;18.48;;
73585;SDS011;61865;50.232;18.614;2023-03-31T05:18:33;23.95;;;16.70;;
73585;SDS011;61865;50.232;18.614;2023-03-31T05:20:55;27.65;;;17.52;;
73585;SDS011;61865;50.232;18.614;2023-03-31T05:23:17;20.75;;;15.15;;
73585;SDS011;61865;50.232;18.614;2023-03-31T05:25:39;27.33;;;16.00;;
73585;SDS011;61865;50.232;18.614;2023-03-31T05:28:02;22.10;;;15.15;;
73585;SDS011;61865;50.232;18.614;2023-03-31T05:30:25;21.02;;;15.73;;
73585;SDS011;61865;50.232;18.614;2023-03-31T05:32:49;25.50;;;15.90;;
73585;SDS011;61865;50.232;18.614;2023-03-31T05:35:11;23.23;;;14.73;;
73585;SDS011;61865;50.232;18.614;2023-03-31T05:37:33;19.63;;;13.90;;
73585;SDS011;61865;50.232;18.614;2023-03-31T05:39:54;21.65;;;14.48;;
73585;SDS011;61865;50.232;18.614;2023-03-31T05:42:16;21.55;;;13.98;;
73585;SDS011;61865;50.232;18.614;2023-03-31T05:44:38;22.55;;;12.93;;
73585;SDS011;61865;50.232;18.614;2023-03-31T05:47:00;16.10;;;11.48;;
73585;SDS011;61865;50.232;18.614;2023-03-31T05:49:23;17.40;;;12.20;;
73585;SDS011;61865;50.232;18.614;2023-03-31T05:51:45;15.38;;;11.65;;
73585;SDS011;61865;50.232;18.614;2023-03-31T05:54:07;25.17;;;12.07;;
73585;SDS011;61865;50.232;18.614;2023-03-31T05:56:30;20.98;;;11.45;;
73585;SDS011;61865;50.232;18.614;2023-03-31T05:58:51;18.02;;;11.32;;
73585;SDS011;61865;50.232;18.614;2023-03-31T06:01:14;18.60;;;10.90;;
73585;SDS011;61865;50.232;18.614;2023-03-31T06:03:39;19.50;;;10.70;;
73585;SDS011;61865;50.232;18.614;2023-03-31T06:06:03;19.13;;;10.35;;
73585;SDS011;61865;50.232;18.614;2023-03-31T06:08:27;16.15;;;9.70;;
73585;SDS011;61865;50.232;18.614;2023-03-31T06:10:49;17.33;;;9.25;;
73585;SDS011;61865;50.232;18.614;2023-03-31T06:13:11;15.45;;;8.88;;
73585;SDS011;61865;50.232;18.614;2023-03-31T06:15:33;18.73;;;9.88;;
73585;SDS011;61865;50.232;18.614;2023-03-31T06:17:55;15.93;;;8.98;;
73585;SDS011;61865;50.232;18.614;2023-03-31T06:20:17;17.95;;;9.15;;
73585;SDS011;61865;50.232;18.614;2023-03-31T06:22:40;15.95;;;8.82;;
73585;SDS011;61865;50.232;18.614;2023-03-31T06:25:02;15.00;;;8.57;;
73585;SDS011;61865;50.232;18.614;2023-03-31T06:27:25;14.55;;;7.60;;
73585;SDS011;61865;50.232;18.614;2023-03-31T06:29:47;12.18;;;8.13;;
73585;SDS011;61865;50.232;18.614;2023-03-31T06:32:09;12.55;;;8.00;;
73585;SDS011;61865;50.232;18.614;2023-03-31T06:34:34;14.27;;;8.40;;
73585;SDS011;61865;50.232;18.614;2023-03-31T06:36:57;13.45;;;8.35;;
73585;SDS011;61865;50.232;18.614;2023-03-31T06:39:24;11.52;;;7.85;;
73585;SDS011;61865;50.232;18.614;2023-03-31T06:41:46;13.98;;;7.38;;
73585;SDS011;61865;50.232;18.614;2023-03-31T06:44:08;15.13;;;7.32;;
73585;SDS011;61865;50.232;18.614;2023-03-31T06:46:30;11.93;;;6.45;;
73585;SDS011;61865;50.232;18.614;2023-03-31T06:48:52;11.90;;;6.72;;
73585;SDS011;61865;50.232;18.614;2023-03-31T06:51:14;7.97;;;5.55;;
73585;SDS011;61865;50.232;18.614;2023-03-31T06:53:36;13.88;;;7.30;;
73585;SDS011;61865;50.232;18.614;2023-03-31T06:55:59;13.18;;;6.25;;
73585;SDS011;61865;50.232;18.614;2023-03-31T06:58:21;12.57;;;5.40;;
73585;SDS011;61865;50.232;18.614;2023-03-31T07:00:43;9.63;;;5.88;;
73585;SDS011;61865;50.232;18.614;2023-03-31T07:03:06;10.82;;;5.57;;
73585;SDS011;61865;50.232;18.614;2023-03-31T07:05:29;12.35;;;5.75;;
73585;SDS011;61865;50.232;18.614;2023-03-31T07:07:51;10.10;;;5.28;;
73585;SDS011;61865;50.232;18.614;2023-03-31T07:10:13;11.18;;;6.07;;
73585;SDS011;61865;50.232;18.614;2023-03-31T07:12:36;9.25;;;5.50;;
73585;SDS011;61865;50.232;18.614;2023-03-31T07:14:58;11.80;;;5.22;;
73585;SDS011;61865;50.232;18.614;2023-03-31T07:17:21;8.93;;;5.20;;
73585;SDS011;61865;50.232;18.614;2023-03-31T07:19:44;10.38;;;4.70;;
73585;SDS011;61865;50.232;18.614;2023-03-31T07:22:07;8.93;;;4.72;;
73585;SDS011;61865;50.232;18.614;2023-03-31T07:24:29;10.18;;;5.50;;
73585;SDS011;61865;50.232;18.614;2023-03-31T07:26:51;10.63;;;4.93;;
73585;SDS011;61865;50.232;18.614;2023-03-31T07:29:14;9.35;;;4.85;;
73585;SDS011;61865;50.232;18.614;2023-03-31T07:31:36;19.08;;;7.68;;
73585;SDS011;61865;50.232;18.614;2023-03-31T07:33:58;13.25;;;6.82;;
73585;SDS011;61865;50.232;18.614;2023-03-31T07:36:21;12.32;;;5.40;;
73585;SDS011;61865;50.232;18.614;2023-03-31T07:38:44;9.98;;;4.88;;
73585;SDS011;61865;50.232;18.614;2023-03-31T07:41:09;9.52;;;5.00;;
73585;SDS011;61865;50.232;18.614;2023-03-31T07:43:31;9.95;;;5.10;;
73585;SDS011;61865;50.232;18.614;2023-03-31T07:45:55;10.23;;;5.15;;
73585;SDS011;61865;50.232;18.614;2023-03-31T07:48:17;9.30;;;5.18;;
73585;SDS011;61865;50.232;18.614;2023-03-31T07:50:38;11.73;;;4.68;;
73585;SDS011;61865;50.232;18.614;2023-03-31T07:53:00;8.88;;;4.88;;
73585;SDS011;61865;50.232;18.614;2023-03-31T07:55:22;13.13;;;4.53;;
73585;SDS011;61865;50.232;18.614;2023-03-31T07:57:45;9.40;;;4.85;;
73585;SDS011;61865;50.232;18.614;2023-03-31T08:00:08;13.23;;;4.88;;
73585;SDS011;61865;50.232;18.614;2023-03-31T08:02:32;12.23;;;5.60;;
73585;SDS011;61865;50.232;18.614;2023-03-31T08:04:55;10.02;;;5.35;;
73585;SDS011;61865;50.232;18.614;2023-03-31T08:07:16;10.52;;;5.13;;
73585;SDS011;61865;50.232;18.614;2023-03-31T08:09:39;10.32;;;4.88;;
73585;SDS011;61865;50.232;18.614;2023-03-31T08:12:03;12.02;;;5.05;;
73585;SDS011;61865;50.232;18.614;2023-03-31T08:14:25;11.60;;;5.38;;
73585;SDS011;61865;50.232;18.614;2023-03-31T08:16:47;7.00;;;4.32;;
73585;SDS011;61865;50.232;18.614;2023-03-31T08:19:13;8.95;;;4.55;;
73585;SDS011;61865;50.232;18.614;2023-03-31T08:21:35;8.98;;;4.55;;
73585;SDS011;61865;50.232;18.614;2023-03-31T08:23:57;11.82;;;4.70;;
73585;SDS011;61865;50.232;18.614;2023-03-31T08:26:19;10.80;;;5.15;;
73585;SDS011;61865;50.232;18.614;2023-03-31T08:28:43;13.00;;;4.50;;
73585;SDS011;61865;50.232;18.614;2023-03-31T08:31:07;7.97;;;4.45;;
73585;SDS011;61865;50.232;18.614;2023-03-31T08:33:30;8.82;;;4.50;;
73585;SDS011;61865;50.232;18.614;2023-03-31T08:35:54;8.98;;;4.40;;
73585;SDS011;61865;50.232;18.614;2023-03-31T08:38:16;10.73;;;4.80;;
73585;SDS011;61865;50.232;18.614;2023-03-31T08:40:39;14.77;;;4.70;;
73585;SDS011;61865;50.232;18.614;2023-03-31T08:43:03;9.30;;;4.93;;
73585;SDS011;61865;50.232;18.614;2023-03-31T08:45:31;12.10;;;4.80;;
73585;SDS011;61865;50.232;18.614;2023-03-31T08:47:58;10.73;;;4.68;;
73585;SDS011;61865;50.232;18.614;2023-03-31T08:50:24;9.85;;;4.78;;
73585;SDS011;61865;50.232;18.614;2023-03-31T08:52:51;17.08;;;4.90;;
73585;SDS011;61865;50.232;18.614;2023-03-31T08:55:21;7.22;;;4.50;;
73585;SDS011;61865;50.232;18.614;2023-03-31T08:57:50;8.82;;;4.60;;
73585;SDS011;61865;50.232;18.614;2023-03-31T09:00:18;8.88;;;4.35;;
73585;SDS011;61865;50.232;18.614;2023-03-31T09:02:41;10.23;;;4.40;;
73585;SDS011;61865;50.232;18.614;2023-03-31T09:05:27;11.27;;;5.05;;
73585;SDS011;61865;50.232;18.614;2023-03-31T09:08:12;11.27;;;5.40;;
73585;SDS011;61865;50.232;18.614;2023-03-31T09:10:49;17.30;;;5.07;;
73585;SDS011;61865;50.232;18.614;2023-03-31T09:13:23;13.90;;;4.97;;
73585;SDS011;61865;50.232;18.614;2023-03-31T09:16:00;10.63;;;4.82;;
73585;SDS011;61865;50.232;18.614;2023-03-31T09:18:26;9.20;;;4.30;;
73585;SDS011;61865;50.232;18.614;2023-03-31T09:20:51;12.52;;;5.07;;
73585;SDS011;61865;50.232;18.614;2023-03-31T09:23:21;9.40;;;5.30;;
73585;SDS011;61865;50.232;18.614;2023-03-31T09:25:47;9.65;;;4.82;;
73585;SDS011;61865;50.232;18.614;2023-03-31T09:28:12;10.50;;;4.60;;
73585;SDS011;61865;50.232;18.614;2023-03-31T09:30:39;12.05;;;5.55;;
73585;SDS011;61865;50.232;18.614;2023-03-31T09:33:05;12.93;;;4.22;;
73585;SDS011;61865;50.232;18.614;2023-03-31T09:35:32;7.95;;;4.00;;
73585;SDS011;61865;50.232;18.614;2023-03-31T09:37:54;9.18;;;4.90;;
73585;SDS011;61865;50.232;18.614;2023-03-31T09:40:18;12.38;;;4.60;;
73585;SDS011;61865;50.232;18.614;2023-03-31T09:42:41;10.35;;;4.63;;
73585;SDS011;61865;50.232;18.614;2023-03-31T09:45:04;9.40;;;4.20;;
73585;SDS011;61865;50.232;18.614;2023-03-31T09:47:28;12.00;;;5.22;;
73585;SDS011;61865;50.232;18.614;2023-03-31T09:49:53;10.02;;;4.97;;
73585;SDS011;61865;50.232;18.614;2023-03-31T09:52:19;12.38;;;4.93;;
73585;SDS011;61865;50.232;18.614;2023-03-31T09:54:47;14.25;;;5.50;;
73585;SDS011;61865;50.232;18.614;2023-03-31T09:57:21;9.40;;;4.93;;
73585;SDS011;61865;50.232;18.614;2023-03-31T09:59:49;8.40;;;3.92;;
73585;SDS011;61865;50.232;18.614;2023-03-31T10:02:28;9.90;;;4.75;;
73585;SDS011;61865;50.232;18.614;2023-03-31T10:04:55;10.23;;;4.57;;
73585;SDS011;61865;50.232;18.614;2023-03-31T10:07:19;12.50;;;5.68;;
73585;SDS011;61865;50.232;18.614;2023-03-31T10:09:46;8.43;;;4.35;;
73585;SDS011;61865;50.232;18.614;2023-03-31T10:12:13;11.35;;;4.50;;
73585;SDS011;61865;50.232;18.614;2023-03-31T10:14:44;14.55;;;5.10;;
73585;SDS011;61865;50.232;18.614;2023-03-31T10:17:11;10.35;;;4.78;;
73585;SDS011;61865;50.232;18.614;2023-03-31T10:19:35;11.38;;;4.75;;
73585;SDS011;61865;50.232;18.614;2023-03-31T10:21:58;9.40;;;4.68;;
73585;SDS011;61865;50.232;18.614;2023-03-31T10:24:21;8.25;;;4.15;;
73585;SDS011;61865;50.232;18.614;2023-03-31T10:26:45;9.85;;;4.80;;
73585;SDS011;61865;50.232;18.614;2023-03-31T10:29:10;9.35;;;4.05;;
73585;SDS011;61865;50.232;18.614;2023-03-31T10:31:34;8.90;;;4.30;;
73585;SDS011;61865;50.232;18.614;2023-03-31T10:33:57;12.05;;;4.68;;
73585;SDS011;61865;50.232;18.614;2023-03-31T10:36:20;6.90;;;3.50;;
73585;SDS011;61865;50.232;18.614;2023-03-31T10:38:45;6.10;;;3.70;;
73585;SDS011;61865;50.232;18.614;2023-03-31T10:41:10;7.53;;;3.40;;
73585;SDS011;61865;50.232;18.614;2023-03-31T10:43:39;8.10;;;3.67;;
73585;SDS011;61865;50.232;18.614;2023-03-31T10:46:03;11.45;;;3.67;;
73585;SDS011;61865;50.232;18.614;2023-03-31T10:48:27;9.55;;;4.07;;
73585;SDS011;61865;50.232;18.614;2023-03-31T10:50:50;7.55;;;4.22;;
73585;SDS011;61865;50.232;18.614;2023-03-31T10:53:16;8.48;;;3.83;;
73585;SDS011;61865;50.232;18.614;2023-03-31T10:55:40;10.80;;;4.07;;
73585;SDS011;61865;50.232;18.614;2023-03-31T10:58:13;14.35;;;4.90;;
73585;SDS011;61865;50.232;18.614;2023-03-31T11:00:50;15.85;;;5.38;;
73585;SDS011;61865;50.232;18.614;2023-03-31T11:03:29;13.30;;;5.20;;
73585;SDS011;61865;50.232;18.614;2023-03-31T11:06:03;9.73;;;4.00;;
73585;SDS011;61865;50.232;18.614;2023-03-31T11:08:32;14.15;;;4.78;;
73585;SDS011;61865;50.232;18.614;2023-03-31T11:11:15;11.93;;;4.80;;
73585;SDS011;61865;50.232;18.614;2023-03-31T11:13:47;7.78;;;3.75;;
73585;SDS011;61865;50.232;18.614;2023-03-31T11:16:17;12.27;;;4.10;;
73585;SDS011;61865;50.232;18.614;2023-03-31T11:18:54;8.73;;;3.58;;
73585;SDS011;61865;50.232;18.614;2023-03-31T11:21:25;10.55;;;3.80;;
73585;SDS011;61865;50.232;18.614;2023-03-31T11:23:55;6.00;;;3.30;;
73585;SDS011;61865;50.232;18.614;2023-03-31T11:26:28;9.48;;;4.32;;
73585;SDS011;61865;50.232;18.614;2023-03-31T11:29:03;8.50;;;4.72;;
73585;SDS011;61865;50.232;18.614;2023-03-31T11:31:39;13.60;;;5.28;;
73585;SDS011;61865;50.232;18.614;2023-03-31T11:34:14;12.63;;;4.80;;
73585;SDS011;61865;50.232;18.614;2023-03-31T11:36:53;10.88;;;3.80;;
73585;SDS011;61865;50.232;18.614;2023-03-31T11:39:54;11.68;;;4.38;;
73585;SDS011;61865;50.232;18.614;2023-03-31T11:42:36;12.90;;;5.20;;
73585;SDS011;61865;50.232;18.614;2023-03-31T11:45:02;14.45;;;5.70;;
73585;SDS011;61865;50.232;18.614;2023-03-31T11:47:33;14.05;;;4.57;;
73585;SDS011;61865;50.232;18.614;2023-03-31T11:49:59;8.38;;;3.50;;
73585;SDS011;61865;50.232;18.614;2023-03-31T11:52:26;9.75;;;3.25;;
73585;SDS011;61865;50.232;18.614;2023-03-31T11:54:51;8.68;;;2.92;;
73585;SDS011;61865;50.232;18.614;2023-03-31T11:57:18;7.30;;;2.90;;
73585;SDS011;61865;50.232;18.614;2023-03-31T11:59:44;8.35;;;3.67;;
73585;SDS011;61865;50.232;18.614;2023-03-31T12:02:13;10.27;;;3.35;;
73585;SDS011;61865;50.232;18.614;2023-03-31T12:04:38;14.82;;;4.93;;
73585;SDS011;61865;50.232;18.614;2023-03-31T12:07:07;12.98;;;4.07;;
73585;SDS011;61865;50.232;18.614;2023-03-31T12:09:42;6.32;;;2.47;;
73585;SDS011;61865;50.232;18.614;2023-03-31T12:14:38;10.13;;;2.30;;
73585;SDS011;61865;50.232;18.614;2023-03-31T12:17:04;7.78;;;2.60;;
73585;SDS011;61865;50.232;18.614;2023-03-31T12:19:32;8.02;;;2.08;;
73585;SDS011;61865;50.232;18.614;2023-03-31T12:22:04;6.85;;;2.75;;
73585;SDS011;61865;50.232;18.614;2023-03-31T12:24:34;8.82;;;3.08;;
73585;SDS011;61865;50.232;18.614;2023-03-31T12:27:00;7.53;;;2.60;;
73585;SDS011;61865;50.232;18.614;2023-03-31T12:29:29;9.90;;;2.67;;
73585;SDS011;61865;50.232;18.614;2023-03-31T12:31:54;6.65;;;2.40;;
73585;SDS011;61865;50.232;18.614;2023-03-31T12:34:17;8.30;;;2.50;;
73585;SDS011;61865;50.232;18.614;2023-03-31T12:36:44;6.63;;;2.15;;
73585;SDS011;61865;50.232;18.614;2023-03-31T12:39:20;7.28;;;2.65;;
73585;SDS011;61865;50.232;18.614;2023-03-31T12:41:54;8.23;;;3.15;;
73585;SDS011;61865;50.232;18.614;2023-03-31T12:44:44;7.38;;;2.80;;
73585;SDS011;61865;50.232;18.614;2023-03-31T12:47:21;5.65;;;2.42;;
73585;SDS011;61865;50.232;18.614;2023-03-31T12:49:58;9.30;;;2.80;;
73585;SDS011;61865;50.232;18.614;2023-03-31T12:52:37;13.82;;;3.70;;
73585;SDS011;61865;50.232;18.614;2023-03-31T12:55:18;8.95;;;3.38;;
73585;SDS011;61865;50.232;18.614;2023-03-31T13:01:13;10.60;;;3.03;;
73585;SDS011;61865;50.232;18.614;2023-03-31T13:03:47;7.85;;;2.95;;
73585;SDS011;61865;50.232;18.614;2023-03-31T13:12:17;11.27;;;2.40;;
73585;SDS011;61865;50.232;18.614;2023-03-31T13:14:41;4.97;;;2.10;;
73585;SDS011;61865;50.232;18.614;2023-03-31T13:17:12;8.65;;;2.85;;
73585;SDS011;61865;50.232;18.614;2023-03-31T13:19:45;6.25;;;2.45;;
73585;SDS011;61865;50.232;18.614;2023-03-31T13:22:26;13.85;;;3.55;;
73585;SDS011;61865;50.232;18.614;2023-03-31T13:24:50;7.97;;;3.08;;
73585;SDS011;61865;50.232;18.614;2023-03-31T13:27:27;8.55;;;2.67;;
73585;SDS011;61865;50.232;18.614;2023-03-31T13:29:51;10.25;;;3.00;;
73585;SDS011;61865;50.232;18.614;2023-03-31T13:32:20;17.70;;;3.50;;
73585;SDS011;61865;50.232;18.614;2023-03-31T13:34:43;9.93;;;3.10;;
73585;SDS011;61865;50.232;18.614;2023-03-31T13:37:14;9.15;;;3.28;;
73585;SDS011;61865;50.232;18.614;2023-03-31T13:42:40;11.95;;;4.00;;
73585;SDS011;61865;50.232;18.614;2023-03-31T13:48:10;9.57;;;3.40;;
73585;SDS011;61865;50.232;18.614;2023-03-31T13:50:45;10.02;;;3.47;;
73585;SDS011;61865;50.232;18.614;2023-03-31T13:53:44;10.60;;;4.07;;
73585;SDS011;61865;50.232;18.614;2023-03-31T13:56:38;9.75;;;4.20;;
73585;SDS011;61865;50.232;18.614;2023-03-31T13:59:21;13.80;;;5.70;;
73585;SDS011;61865;50.232;18.614;2023-03-31T14:05:29;11.50;;;5.63;;
73585;SDS011;61865;50.232;18.614;2023-03-31T14:07:58;11.90;;;4.82;;
73585;SDS011;61865;50.232;18.614;2023-03-31T14:10:27;10.25;;;4.70;;
73585;SDS011;61865;50.232;18.614;2023-03-31T14:12:50;12.00;;;5.10;;
73585;SDS011;61865;50.232;18.614;2023-03-31T14:15:18;13.27;;;5.20;;
73585;SDS011;61865;50.232;18.614;2023-03-31T14:17:45;15.50;;;5.93;;
73585;SDS011;61865;50.232;18.614;2023-03-31T14:20:21;17.77;;;7.15;;
73585;SDS011;61865;50.232;18.614;2023-03-31T14:22:52;20.77;;;8.60;;
73585;SDS011;61865;50.232;18.614;2023-03-31T14:25:29;13.50;;;6.07;;
73585;SDS011;61865;50.232;18.614;2023-03-31T14:28:02;14.02;;;6.43;;
73585;SDS011;61865;50.232;18.614;2023-03-31T14:30:39;15.80;;;6.38;;
73585;SDS011;61865;50.232;18.614;2023-03-31T14:33:12;13.20;;;5.93;;
73585;SDS011;61865;50.232;18.614;2023-03-31T14:35:45;14.93;;;5.30;;
73585;SDS011;61865;50.232;18.614;2023-03-31T14:38:15;12.43;;;4.80;;
73585;SDS011;61865;50.232;18.614;2023-03-31T14:40:42;11.93;;;4.28;;
73585;SDS011;61865;50.232;18.614;2023-03-31T14:43:09;10.38;;;5.05;;